sensor_id;sensor_type;location;lat;lon;timestamp;temperature;humidity
3281;DHT22;1652;51.318;6.202;2023-09-07T00:02:06;17.90;99.90
3281;DHT22;1652;51.318;6.202;2023-09-07T00:04:34;17.80;99.90
3281;DHT22;1652;51.318;6.202;2023-09-07T00:07:01;17.70;99.90
3281;DHT22;1652;51.318;6.202;2023-09-07T00:09:28;17.70;99.90
3281;DHT22;1652;51.318;6.202;2023-09-07T00:11:54;17.70;99.90
3281;DHT22;1652;51.318;6.202;2023-09-07T00:14:21;17.60;99.90
3281;DHT22;1652;51.318;6.202;2023-09-07T00:16:48;17.70;99.90
3281;DHT22;1652;51.318;6.202;2023-09-07T00:19:16;18.00;99.90
3281;DHT22;1652;51.318;6.202;2023-09-07T00:21:43;18.40;99.90
3281;DHT22;1652;51.318;6.202;2023-09-07T00:24:09;18.70;99.90
3281;DHT22;1652;51.318;6.202;2023-09-07T00:26:37;18.90;99.90
3281;DHT22;1652;51.318;6.202;2023-09-07T00:29:03;19.10;99.90
3281;DHT22;1652;51.318;6.202;2023-09-07T00:31:30;19.20;99.90
3281;DHT22;1652;51.318;6.202;2023-09-07T00:33:57;19.20;99.90
3281;DHT22;1652;51.318;6.202;2023-09-07T00:36:24;19.20;99.90
3281;DHT22;1652;51.318;6.202;2023-09-07T00:38:51;19.20;99.90
3281;DHT22;1652;51.318;6.202;2023-09-07T00:41:18;19.20;99.90
3281;DHT22;1652;51.318;6.202;2023-09-07T00:43:45;19.20;99.90
3281;DHT22;1652;51.318;6.202;2023-09-07T00:46:12;19.20;99.90
3281;DHT22;1652;51.318;6.202;2023-09-07T00:48:39;19.30;99.90
3281;DHT22;1652;51.318;6.202;2023-09-07T00:51:06;19.30;99.90
3281;DHT22;1652;51.318;6.202;2023-09-07T00:53:33;19.30;99.90
3281;DHT22;1652;51.318;6.202;2023-09-07T00:56:02;19.30;99.90
3281;DHT22;1652;51.318;6.202;2023-09-07T00:58:29;19.10;99.90
3281;DHT22;1652;51.318;6.202;2023-09-07T01:00:57;19.00;99.90
3281;DHT22;1652;51.318;6.202;2023-09-07T01:03:24;18.70;99.90
3281;DHT22;1652;51.318;6.202;2023-09-07T01:06:01;18.50;99.90
3281;DHT22;1652;51.318;6.202;2023-09-07T01:08:35;18.40;99.90
3281;DHT22;1652;51.318;6.202;2023-09-07T01:11:15;18.20;99.90
3281;DHT22;1652;51.318;6.202;2023-09-07T01:13:42;17.90;99.90
3281;DHT22;1652;51.318;6.202;2023-09-07T01:16:10;17.70;99.90
3281;DHT22;1652;51.318;6.202;2023-09-07T01:18:38;17.50;99.90
3281;DHT22;1652;51.318;6.202;2023-09-07T01:21:09;17.40;99.90
3281;DHT22;1652;51.318;6.202;2023-09-07T01:23:42;17.50;99.90
3281;DHT22;1652;51.318;6.202;2023-09-07T01:26:10;17.30;99.90
3281;DHT22;1652;51.318;6.202;2023-09-07T01:28:38;17.30;99.90
3281;DHT22;1652;51.318;6.202;2023-09-07T01:31:05;17.30;99.90
3281;DHT22;1652;51.318;6.202;2023-09-07T01:33:33;17.30;99.90
3281;DHT22;1652;51.318;6.202;2023-09-07T01:36:00;17.60;99.90
3281;DHT22;1652;51.318;6.202;2023-09-07T01:38:27;17.90;99.90
3281;DHT22;1652;51.318;6.202;2023-09-07T01:40:55;18.00;99.90
3281;DHT22;1652;51.318;6.202;2023-09-07T01:43:22;18.20;99.90
3281;DHT22;1652;51.318;6.202;2023-09-07T01:45:49;18.30;99.90
3281;DHT22;1652;51.318;6.202;2023-09-07T01:48:16;18.40;99.90
3281;DHT22;1652;51.318;6.202;2023-09-07T01:50:43;18.40;99.90
3281;DHT22;1652;51.318;6.202;2023-09-07T01:53:10;18.40;99.90
3281;DHT22;1652;51.318;6.202;2023-09-07T01:55:37;18.40;99.90
3281;DHT22;1652;51.318;6.202;2023-09-07T01:58:04;18.40;99.90
3281;DHT22;1652;51.318;6.202;2023-09-07T02:00:36;18.40;99.90
3281;DHT22;1652;51.318;6.202;2023-09-07T02:03:04;18.30;99.90
3281;DHT22;1652;51.318;6.202;2023-09-07T02:05:31;18.30;99.90
3281;DHT22;1652;51.318;6.202;2023-09-07T02:08:02;18.30;99.90
3281;DHT22;1652;51.318;6.202;2023-09-07T02:10:29;18.30;99.90
3281;DHT22;1652;51.318;6.202;2023-09-07T02:12:57;18.30;99.90
3281;DHT22;1652;51.318;6.202;2023-09-07T02:15:24;18.30;99.90
3281;DHT22;1652;51.318;6.202;2023-09-07T02:17:52;18.30;99.90
3281;DHT22;1652;51.318;6.202;2023-09-07T02:20:19;18.20;99.90
3281;DHT22;1652;51.318;6.202;2023-09-07T02:22:47;18.10;99.90
3281;DHT22;1652;51.318;6.202;2023-09-07T02:25:14;18.20;99.90
3281;DHT22;1652;51.318;6.202;2023-09-07T02:27:41;18.10;99.90
3281;DHT22;1652;51.318;6.202;2023-09-07T02:30:08;18.20;99.90
3281;DHT22;1652;51.318;6.202;2023-09-07T02:32:36;18.20;99.90
3281;DHT22;1652;51.318;6.202;2023-09-07T02:35:03;18.10;99.90
3281;DHT22;1652;51.318;6.202;2023-09-07T02:37:31;18.10;99.90
3281;DHT22;1652;51.318;6.202;2023-09-07T02:39:58;18.10;99.90
3281;DHT22;1652;51.318;6.202;2023-09-07T02:42:25;18.10;99.90
3281;DHT22;1652;51.318;6.202;2023-09-07T02:44:52;18.10;99.90
3281;DHT22;1652;51.318;6.202;2023-09-07T02:47:20;17.90;99.90
3281;DHT22;1652;51.318;6.202;2023-09-07T02:49:48;18.00;99.90
3281;DHT22;1652;51.318;6.202;2023-09-07T02:52:15;18.00;99.90
3281;DHT22;1652;51.318;6.202;2023-09-07T02:54:42;18.00;99.90
3281;DHT22;1652;51.318;6.202;2023-09-07T02:57:09;17.90;99.90
3281;DHT22;1652;51.318;6.202;2023-09-07T02:59:35;18.00;99.90
3281;DHT22;1652;51.318;6.202;2023-09-07T03:02:02;18.00;99.90
3281;DHT22;1652;51.318;6.202;2023-09-07T03:04:30;17.90;99.90
3281;DHT22;1652;51.318;6.202;2023-09-07T03:06:57;17.90;99.90
3281;DHT22;1652;51.318;6.202;2023-09-07T03:09:24;17.90;99.90
3281;DHT22;1652;51.318;6.202;2023-09-07T03:11:51;17.70;99.90
3281;DHT22;1652;51.318;6.202;2023-09-07T03:14:18;17.90;99.90
3281;DHT22;1652;51.318;6.202;2023-09-07T03:16:45;17.90;99.90
3281;DHT22;1652;51.318;6.202;2023-09-07T03:19:12;17.70;99.90
3281;DHT22;1652;51.318;6.202;2023-09-07T03:21:39;17.50;99.90
3281;DHT22;1652;51.318;6.202;2023-09-07T03:24:07;17.30;99.90
3281;DHT22;1652;51.318;6.202;2023-09-07T03:26:34;17.00;99.90
3281;DHT22;1652;51.318;6.202;2023-09-07T03:29:01;16.80;99.90
3281;DHT22;1652;51.318;6.202;2023-09-07T03:31:28;16.70;99.90
3281;DHT22;1652;51.318;6.202;2023-09-07T03:33:55;16.60;99.90
3281;DHT22;1652;51.318;6.202;2023-09-07T03:36:22;16.40;99.90
3281;DHT22;1652;51.318;6.202;2023-09-07T03:38:50;16.30;99.90
3281;DHT22;1652;51.318;6.202;2023-09-07T03:41:17;16.20;99.90
3281;DHT22;1652;51.318;6.202;2023-09-07T03:43:44;16.10;99.90
3281;DHT22;1652;51.318;6.202;2023-09-07T03:46:12;16.00;99.90
3281;DHT22;1652;51.318;6.202;2023-09-07T03:48:42;16.00;99.90
3281;DHT22;1652;51.318;6.202;2023-09-07T03:51:09;15.90;99.90
3281;DHT22;1652;51.318;6.202;2023-09-07T03:53:36;16.00;99.90
3281;DHT22;1652;51.318;6.202;2023-09-07T03:56:03;15.90;99.90
3281;DHT22;1652;51.318;6.202;2023-09-07T03:58:32;15.90;99.90
3281;DHT22;1652;51.318;6.202;2023-09-07T04:01:00;15.90;99.90
3281;DHT22;1652;51.318;6.202;2023-09-07T04:03:27;15.80;99.90
3281;DHT22;1652;51.318;6.202;2023-09-07T04:05:54;15.70;99.90
3281;DHT22;1652;51.318;6.202;2023-09-07T04:08:21;15.70;99.90
3281;DHT22;1652;51.318;6.202;2023-09-07T04:10:48;15.60;99.90
3281;DHT22;1652;51.318;6.202;2023-09-07T04:13:15;15.60;99.90
3281;DHT22;1652;51.318;6.202;2023-09-07T04:15:43;15.50;99.90
3281;DHT22;1652;51.318;6.202;2023-09-07T04:18:12;15.50;99.90
3281;DHT22;1652;51.318;6.202;2023-09-07T04:20:44;15.50;99.90
3281;DHT22;1652;51.318;6.202;2023-09-07T04:23:11;15.40;99.90
3281;DHT22;1652;51.318;6.202;2023-09-07T04:25:38;15.40;99.90
3281;DHT22;1652;51.318;6.202;2023-09-07T04:28:06;15.40;99.90
3281;DHT22;1652;51.318;6.202;2023-09-07T04:30:38;15.30;99.90
3281;DHT22;1652;51.318;6.202;2023-09-07T04:33:05;15.30;99.90
3281;DHT22;1652;51.318;6.202;2023-09-07T04:35:33;15.30;99.90
3281;DHT22;1652;51.318;6.202;2023-09-07T04:38:00;15.40;99.90
3281;DHT22;1652;51.318;6.202;2023-09-07T04:40:27;15.40;99.90
3281;DHT22;1652;51.318;6.202;2023-09-07T04:42:54;15.50;99.90
3281;DHT22;1652;51.318;6.202;2023-09-07T04:45:21;15.50;99.90
3281;DHT22;1652;51.318;6.202;2023-09-07T04:47:49;15.40;99.90
3281;DHT22;1652;51.318;6.202;2023-09-07T04:50:16;15.30;99.90
3281;DHT22;1652;51.318;6.202;2023-09-07T04:52:43;15.30;99.90
3281;DHT22;1652;51.318;6.202;2023-09-07T04:55:10;15.20;99.90
3281;DHT22;1652;51.318;6.202;2023-09-07T04:57:37;15.20;99.90
3281;DHT22;1652;51.318;6.202;2023-09-07T05:00:06;15.20;99.90
3281;DHT22;1652;51.318;6.202;2023-09-07T05:02:34;15.20;99.90
3281;DHT22;1652;51.318;6.202;2023-09-07T05:05:10;15.20;99.90
3281;DHT22;1652;51.318;6.202;2023-09-07T05:07:37;15.30;99.90
3281;DHT22;1652;51.318;6.202;2023-09-07T05:10:05;15.40;99.90
3281;DHT22;1652;51.318;6.202;2023-09-07T05:12:33;15.30;99.90
3281;DHT22;1652;51.318;6.202;2023-09-07T05:15:00;15.30;99.90
3281;DHT22;1652;51.318;6.202;2023-09-07T05:17:27;15.30;99.90
3281;DHT22;1652;51.318;6.202;2023-09-07T05:19:54;15.40;99.90
3281;DHT22;1652;51.318;6.202;2023-09-07T05:22:21;15.40;99.90
3281;DHT22;1652;51.318;6.202;2023-09-07T05:24:48;15.50;99.90
3281;DHT22;1652;51.318;6.202;2023-09-07T05:27:15;15.50;99.90
3281;DHT22;1652;51.318;6.202;2023-09-07T05:29:42;15.50;99.90
3281;DHT22;1652;51.318;6.202;2023-09-07T05:32:10;15.70;99.90
3281;DHT22;1652;51.318;6.202;2023-09-07T05:34:37;15.90;99.90
3281;DHT22;1652;51.318;6.202;2023-09-07T05:37:04;16.10;99.90
3281;DHT22;1652;51.318;6.202;2023-09-07T05:39:31;16.40;99.90
3281;DHT22;1652;51.318;6.202;2023-09-07T05:41:57;16.90;99.90
3281;DHT22;1652;51.318;6.202;2023-09-07T05:44:24;17.20;99.90
3281;DHT22;1652;51.318;6.202;2023-09-07T05:46:51;17.50;99.90
3281;DHT22;1652;51.318;6.202;2023-09-07T05:49:18;18.10;99.90
3281;DHT22;1652;51.318;6.202;2023-09-07T05:51:45;19.00;99.90
3281;DHT22;1652;51.318;6.202;2023-09-07T05:54:12;20.30;99.90
3281;DHT22;1652;51.318;6.202;2023-09-07T05:56:40;21.20;99.90
3281;DHT22;1652;51.318;6.202;2023-09-07T05:59:06;22.00;99.90
3281;DHT22;1652;51.318;6.202;2023-09-07T06:01:33;22.80;99.90
3281;DHT22;1652;51.318;6.202;2023-09-07T06:04:00;23.30;99.90
3281;DHT22;1652;51.318;6.202;2023-09-07T06:06:28;23.70;99.90
3281;DHT22;1652;51.318;6.202;2023-09-07T06:08:55;24.20;99.90
3281;DHT22;1652;51.318;6.202;2023-09-07T06:11:22;24.30;99.90
3281;DHT22;1652;51.318;6.202;2023-09-07T06:13:49;24.50;99.90
3281;DHT22;1652;51.318;6.202;2023-09-07T06:16:16;24.70;99.90
3281;DHT22;1652;51.318;6.202;2023-09-07T06:18:44;24.70;99.90
3281;DHT22;1652;51.318;6.202;2023-09-07T06:21:11;24.90;99.90
3281;DHT22;1652;51.318;6.202;2023-09-07T06:23:37;24.90;99.90
3281;DHT22;1652;51.318;6.202;2023-09-07T06:26:04;24.90;99.90
3281;DHT22;1652;51.318;6.202;2023-09-07T06:28:31;25.70;99.90
3281;DHT22;1652;51.318;6.202;2023-09-07T06:30:59;26.00;99.90
3281;DHT22;1652;51.318;6.202;2023-09-07T06:33:25;26.00;99.90
3281;DHT22;1652;51.318;6.202;2023-09-07T06:35:52;26.00;99.90
3281;DHT22;1652;51.318;6.202;2023-09-07T06:38:19;26.30;99.90
3281;DHT22;1652;51.318;6.202;2023-09-07T06:40:49;26.50;99.90
3281;DHT22;1652;51.318;6.202;2023-09-07T06:43:16;26.90;99.90
3281;DHT22;1652;51.318;6.202;2023-09-07T06:45:44;26.60;99.90
3281;DHT22;1652;51.318;6.202;2023-09-07T06:48:11;26.60;99.90
3281;DHT22;1652;51.318;6.202;2023-09-07T06:50:39;26.90;99.90
3281;DHT22;1652;51.318;6.202;2023-09-07T06:53:06;27.70;99.90
3281;DHT22;1652;51.318;6.202;2023-09-07T06:55:33;27.90;99.90
3281;DHT22;1652;51.318;6.202;2023-09-07T06:58:00;28.40;99.90
3281;DHT22;1652;51.318;6.202;2023-09-07T07:00:28;28.80;99.50
3281;DHT22;1652;51.318;6.202;2023-09-07T07:02:55;28.60;99.20
3281;DHT22;1652;51.318;6.202;2023-09-07T07:05:35;29.00;97.40
3281;DHT22;1652;51.318;6.202;2023-09-07T07:08:01;28.90;98.00
3281;DHT22;1652;51.318;6.202;2023-09-07T07:10:29;29.10;97.20
3281;DHT22;1652;51.318;6.202;2023-09-07T07:12:56;29.70;95.40
3281;DHT22;1652;51.318;6.202;2023-09-07T07:15:22;30.00;94.40
3281;DHT22;1652;51.318;6.202;2023-09-07T07:17:50;30.00;93.90
3281;DHT22;1652;51.318;6.202;2023-09-07T07:20:17;29.60;95.10
3281;DHT22;1652;51.318;6.202;2023-09-07T07:22:43;29.30;94.80
3281;DHT22;1652;51.318;6.202;2023-09-07T07:25:10;29.50;94.30
3281;DHT22;1652;51.318;6.202;2023-09-07T07:27:37;29.40;94.10
3281;DHT22;1652;51.318;6.202;2023-09-07T07:30:05;29.10;94.60
3281;DHT22;1652;51.318;6.202;2023-09-07T07:32:33;28.90;94.40
3281;DHT22;1652;51.318;6.202;2023-09-07T07:35:00;28.70;95.30
3281;DHT22;1652;51.318;6.202;2023-09-07T07:37:27;28.90;95.40
3281;DHT22;1652;51.318;6.202;2023-09-07T07:39:54;29.20;94.40
3281;DHT22;1652;51.318;6.202;2023-09-07T07:42:21;29.00;95.00
3281;DHT22;1652;51.318;6.202;2023-09-07T07:44:47;29.00;94.80
3281;DHT22;1652;51.318;6.202;2023-09-07T07:47:14;28.60;95.20
3281;DHT22;1652;51.318;6.202;2023-09-07T07:49:41;28.80;95.80
3281;DHT22;1652;51.318;6.202;2023-09-07T07:52:08;28.70;95.20
3281;DHT22;1652;51.318;6.202;2023-09-07T07:54:35;28.30;96.10
3281;DHT22;1652;51.318;6.202;2023-09-07T07:57:03;28.20;95.90
3281;DHT22;1652;51.318;6.202;2023-09-07T07:59:30;28.30;95.90
3281;DHT22;1652;51.318;6.202;2023-09-07T08:01:57;28.20;95.90
3281;DHT22;1652;51.318;6.202;2023-09-07T08:04:24;27.90;97.00
3281;DHT22;1652;51.318;6.202;2023-09-07T08:06:51;28.00;97.10
3281;DHT22;1652;51.318;6.202;2023-09-07T08:09:23;28.30;96.80
3281;DHT22;1652;51.318;6.202;2023-09-07T08:11:49;28.50;96.90
3281;DHT22;1652;51.318;6.202;2023-09-07T08:14:18;28.50;97.00
3281;DHT22;1652;51.318;6.202;2023-09-07T08:16:45;28.40;97.30
3281;DHT22;1652;51.318;6.202;2023-09-07T08:19:12;28.30;96.90
3281;DHT22;1652;51.318;6.202;2023-09-07T08:21:39;28.30;96.60
3281;DHT22;1652;51.318;6.202;2023-09-07T08:24:08;28.30;96.90
3281;DHT22;1652;51.318;6.202;2023-09-07T08:26:36;28.20;97.40
3281;DHT22;1652;51.318;6.202;2023-09-07T08:29:07;28.10;97.40
3281;DHT22;1652;51.318;6.202;2023-09-07T08:31:35;28.00;97.60
3281;DHT22;1652;51.318;6.202;2023-09-07T08:34:04;28.00;99.70
3281;DHT22;1652;51.318;6.202;2023-09-07T08:36:31;28.10;99.20
3281;DHT22;1652;51.318;6.202;2023-09-07T08:39:01;28.30;97.10
3281;DHT22;1652;51.318;6.202;2023-09-07T08:41:38;28.10;97.60
3281;DHT22;1652;51.318;6.202;2023-09-07T08:44:27;28.00;98.60
3281;DHT22;1652;51.318;6.202;2023-09-07T08:46:55;28.00;99.90
3281;DHT22;1652;51.318;6.202;2023-09-07T08:49:22;28.10;97.50
3281;DHT22;1652;51.318;6.202;2023-09-07T08:51:50;28.10;98.20
3281;DHT22;1652;51.318;6.202;2023-09-07T08:54:19;28.20;99.00
3281;DHT22;1652;51.318;6.202;2023-09-07T08:56:47;28.10;97.90
3281;DHT22;1652;51.318;6.202;2023-09-07T08:59:17;28.20;97.20
3281;DHT22;1652;51.318;6.202;2023-09-07T09:01:44;28.10;97.80
3281;DHT22;1652;51.318;6.202;2023-09-07T09:04:11;28.00;98.00
3281;DHT22;1652;51.318;6.202;2023-09-07T09:06:39;27.70;98.80
3281;DHT22;1652;51.318;6.202;2023-09-07T09:09:06;27.40;99.90
3281;DHT22;1652;51.318;6.202;2023-09-07T09:11:33;27.30;99.90
3281;DHT22;1652;51.318;6.202;2023-09-07T09:14:00;27.10;99.90
3281;DHT22;1652;51.318;6.202;2023-09-07T09:16:27;26.80;99.90
3281;DHT22;1652;51.318;6.202;2023-09-07T09:18:56;26.50;99.90
3281;DHT22;1652;51.318;6.202;2023-09-07T09:21:25;26.20;99.90
3281;DHT22;1652;51.318;6.202;2023-09-07T09:23:56;25.80;99.90
3281;DHT22;1652;51.318;6.202;2023-09-07T09:26:24;25.50;99.90
3281;DHT22;1652;51.318;6.202;2023-09-07T09:28:56;25.40;99.90
3281;DHT22;1652;51.318;6.202;2023-09-07T09:31:23;25.40;99.90
3281;DHT22;1652;51.318;6.202;2023-09-07T09:33:51;25.40;99.90
3281;DHT22;1652;51.318;6.202;2023-09-07T09:36:19;25.30;99.90
3281;DHT22;1652;51.318;6.202;2023-09-07T09:38:51;25.40;99.90
3281;DHT22;1652;51.318;6.202;2023-09-07T09:41:20;25.50;99.90
3281;DHT22;1652;51.318;6.202;2023-09-07T09:43:48;25.50;99.90
3281;DHT22;1652;51.318;6.202;2023-09-07T09:46:22;25.50;99.90
3281;DHT22;1652;51.318;6.202;2023-09-07T09:48:49;25.40;99.90
3281;DHT22;1652;51.318;6.202;2023-09-07T09:51:18;25.30;99.90
3281;DHT22;1652;51.318;6.202;2023-09-07T09:53:45;25.20;99.90
3281;DHT22;1652;51.318;6.202;2023-09-07T09:56:12;25.20;99.90
3281;DHT22;1652;51.318;6.202;2023-09-07T09:58:39;25.20;99.90
3281;DHT22;1652;51.318;6.202;2023-09-07T10:01:07;25.30;99.90
3281;DHT22;1652;51.318;6.202;2023-09-07T10:03:47;25.20;99.90
3281;DHT22;1652;51.318;6.202;2023-09-07T10:06:23;25.20;99.90
3281;DHT22;1652;51.318;6.202;2023-09-07T10:09:04;25.30;99.90
3281;DHT22;1652;51.318;6.202;2023-09-07T10:11:35;25.40;99.90
3281;DHT22;1652;51.318;6.202;2023-09-07T10:14:05;25.50;99.90
3281;DHT22;1652;51.318;6.202;2023-09-07T10:16:50;25.50;99.90
3281;DHT22;1652;51.318;6.202;2023-09-07T10:19:22;25.50;99.90
3281;DHT22;1652;51.318;6.202;2023-09-07T10:21:53;25.60;99.90
3281;DHT22;1652;51.318;6.202;2023-09-07T10:24:28;25.60;99.90
3281;DHT22;1652;51.318;6.202;2023-09-07T10:27:06;25.50;99.90
3281;DHT22;1652;51.318;6.202;2023-09-07T10:29:43;25.60;99.90
3281;DHT22;1652;51.318;6.202;2023-09-07T10:32:10;25.60;99.90
3281;DHT22;1652;51.318;6.202;2023-09-07T10:34:41;25.60;99.90
3281;DHT22;1652;51.318;6.202;2023-09-07T10:37:15;25.70;99.90
3281;DHT22;1652;51.318;6.202;2023-09-07T10:39:44;25.70;99.90
3281;DHT22;1652;51.318;6.202;2023-09-07T10:42:21;25.80;99.90
3281;DHT22;1652;51.318;6.202;2023-09-07T10:44:49;25.80;99.90
3281;DHT22;1652;51.318;6.202;2023-09-07T10:47:16;25.80;99.90
3281;DHT22;1652;51.318;6.202;2023-09-07T10:49:43;25.80;99.90
3281;DHT22;1652;51.318;6.202;2023-09-07T10:52:10;25.90;99.90
3281;DHT22;1652;51.318;6.202;2023-09-07T10:54:37;25.90;99.90
3281;DHT22;1652;51.318;6.202;2023-09-07T10:57:10;25.90;99.90
3281;DHT22;1652;51.318;6.202;2023-09-07T10:59:37;26.00;99.90
3281;DHT22;1652;51.318;6.202;2023-09-07T11:02:05;26.00;99.90
3281;DHT22;1652;51.318;6.202;2023-09-07T11:04:32;26.00;99.90
3281;DHT22;1652;51.318;6.202;2023-09-07T11:07:00;26.00;99.90
3281;DHT22;1652;51.318;6.202;2023-09-07T11:09:29;26.00;99.90
3281;DHT22;1652;51.318;6.202;2023-09-07T11:11:56;26.10;99.90
3281;DHT22;1652;51.318;6.202;2023-09-07T11:14:29;26.10;99.90
3281;DHT22;1652;51.318;6.202;2023-09-07T11:16:56;26.20;99.90
3281;DHT22;1652;51.318;6.202;2023-09-07T11:19:23;26.30;99.90
3281;DHT22;1652;51.318;6.202;2023-09-07T11:21:53;26.30;99.90
3281;DHT22;1652;51.318;6.202;2023-09-07T11:24:21;26.40;99.90
3281;DHT22;1652;51.318;6.202;2023-09-07T11:26:48;26.50;99.90
3281;DHT22;1652;51.318;6.202;2023-09-07T11:29:17;26.60;99.90
3281;DHT22;1652;51.318;6.202;2023-09-07T11:31:45;26.60;99.90
3281;DHT22;1652;51.318;6.202;2023-09-07T11:34:14;26.60;99.90
3281;DHT22;1652;51.318;6.202;2023-09-07T11:36:42;26.60;99.90
3281;DHT22;1652;51.318;6.202;2023-09-07T11:39:09;26.60;99.90
3281;DHT22;1652;51.318;6.202;2023-09-07T11:41:44;26.70;99.90
3281;DHT22;1652;51.318;6.202;2023-09-07T11:44:11;26.80;99.90
3281;DHT22;1652;51.318;6.202;2023-09-07T11:46:39;26.80;99.90
3281;DHT22;1652;51.318;6.202;2023-09-07T11:49:06;26.80;99.90
3281;DHT22;1652;51.318;6.202;2023-09-07T11:51:36;26.90;99.90
3281;DHT22;1652;51.318;6.202;2023-09-07T11:54:04;26.90;99.90
3281;DHT22;1652;51.318;6.202;2023-09-07T11:56:31;27.00;99.90
3281;DHT22;1652;51.318;6.202;2023-09-07T11:58:58;27.00;99.90
3281;DHT22;1652;51.318;6.202;2023-09-07T12:01:25;27.10;99.90
3281;DHT22;1652;51.318;6.202;2023-09-07T12:03:54;27.20;99.90
3281;DHT22;1652;51.318;6.202;2023-09-07T12:06:21;27.20;99.90
3281;DHT22;1652;51.318;6.202;2023-09-07T12:09:00;27.40;99.90
3281;DHT22;1652;51.318;6.202;2023-09-07T12:11:28;27.40;99.90
3281;DHT22;1652;51.318;6.202;2023-09-07T12:13:54;27.40;99.90
3281;DHT22;1652;51.318;6.202;2023-09-07T12:16:22;27.50;99.90
3281;DHT22;1652;51.318;6.202;2023-09-07T12:18:49;27.50;99.90
3281;DHT22;1652;51.318;6.202;2023-09-07T12:21:16;27.40;99.90
3281;DHT22;1652;51.318;6.202;2023-09-07T12:23:43;27.50;99.90
3281;DHT22;1652;51.318;6.202;2023-09-07T12:26:10;27.60;99.90
3281;DHT22;1652;51.318;6.202;2023-09-07T12:28:37;27.60;99.90
3281;DHT22;1652;51.318;6.202;2023-09-07T12:31:04;27.60;99.90
3281;DHT22;1652;51.318;6.202;2023-09-07T12:33:31;27.50;99.90
3281;DHT22;1652;51.318;6.202;2023-09-07T12:36:00;27.50;99.90
3281;DHT22;1652;51.318;6.202;2023-09-07T12:38:27;27.60;99.90
3281;DHT22;1652;51.318;6.202;2023-09-07T12:40:55;27.60;99.90
3281;DHT22;1652;51.318;6.202;2023-09-07T12:43:23;27.70;99.90
3281;DHT22;1652;51.318;6.202;2023-09-07T12:45:52;27.70;99.90
3281;DHT22;1652;51.318;6.202;2023-09-07T12:48:20;27.80;99.90
3281;DHT22;1652;51.318;6.202;2023-09-07T12:50:47;27.70;99.90
3281;DHT22;1652;51.318;6.202;2023-09-07T12:53:14;27.70;99.90
3281;DHT22;1652;51.318;6.202;2023-09-07T12:55:41;27.80;99.90
3281;DHT22;1652;51.318;6.202;2023-09-07T12:58:08;27.80;99.90
3281;DHT22;1652;51.318;6.202;2023-09-07T13:00:35;27.80;99.90
3281;DHT22;1652;51.318;6.202;2023-09-07T13:05:33;27.90;99.90
3281;DHT22;1652;51.318;6.202;2023-09-07T13:08:01;27.90;99.90
3281;DHT22;1652;51.318;6.202;2023-09-07T13:10:29;28.00;99.90
3281;DHT22;1652;51.318;6.202;2023-09-07T13:12:57;28.10;99.90
3281;DHT22;1652;51.318;6.202;2023-09-07T13:15:24;28.20;99.90
3281;DHT22;1652;51.318;6.202;2023-09-07T13:17:50;28.10;99.90
3281;DHT22;1652;51.318;6.202;2023-09-07T13:20:17;28.10;99.40
3281;DHT22;1652;51.318;6.202;2023-09-07T13:22:46;28.20;99.80
3281;DHT22;1652;51.318;6.202;2023-09-07T13:25:13;28.10;99.60
3281;DHT22;1652;51.318;6.202;2023-09-07T13:27:40;28.10;99.90
3281;DHT22;1652;51.318;6.202;2023-09-07T13:30:07;28.20;99.70
3281;DHT22;1652;51.318;6.202;2023-09-07T13:32:40;28.20;98.80
3281;DHT22;1652;51.318;6.202;2023-09-07T13:35:07;28.20;99.90
3281;DHT22;1652;51.318;6.202;2023-09-07T13:37:35;28.30;99.80
3281;DHT22;1652;51.318;6.202;2023-09-07T13:40:03;28.30;99.40
3281;DHT22;1652;51.318;6.202;2023-09-07T13:42:31;28.30;99.90
3281;DHT22;1652;51.318;6.202;2023-09-07T13:44:57;28.30;99.60
3281;DHT22;1652;51.318;6.202;2023-09-07T13:47:24;28.50;99.90
3281;DHT22;1652;51.318;6.202;2023-09-07T13:49:51;28.50;98.80
3281;DHT22;1652;51.318;6.202;2023-09-07T13:52:19;28.50;98.80
3281;DHT22;1652;51.318;6.202;2023-09-07T13:54:46;28.40;98.40
3281;DHT22;1652;51.318;6.202;2023-09-07T13:57:13;28.50;99.00
3281;DHT22;1652;51.318;6.202;2023-09-07T13:59:40;28.40;99.20
3281;DHT22;1652;51.318;6.202;2023-09-07T14:02:07;28.40;99.90
3281;DHT22;1652;51.318;6.202;2023-09-07T14:04:33;28.30;99.90
3281;DHT22;1652;51.318;6.202;2023-09-07T14:07:00;28.40;99.40
3281;DHT22;1652;51.318;6.202;2023-09-07T14:09:27;28.50;98.80
3281;DHT22;1652;51.318;6.202;2023-09-07T14:11:54;28.40;99.80
3281;DHT22;1652;51.318;6.202;2023-09-07T14:14:21;28.50;98.90
3281;DHT22;1652;51.318;6.202;2023-09-07T14:16:48;28.50;99.50
3281;DHT22;1652;51.318;6.202;2023-09-07T14:19:16;28.50;99.20
3281;DHT22;1652;51.318;6.202;2023-09-07T14:21:43;28.50;99.10
3281;DHT22;1652;51.318;6.202;2023-09-07T14:24:10;28.60;99.80
3281;DHT22;1652;51.318;6.202;2023-09-07T14:26:37;28.60;98.30
3281;DHT22;1652;51.318;6.202;2023-09-07T14:29:04;28.60;98.40
3281;DHT22;1652;51.318;6.202;2023-09-07T14:31:31;28.70;99.20
3281;DHT22;1652;51.318;6.202;2023-09-07T14:33:58;28.60;99.00
3281;DHT22;1652;51.318;6.202;2023-09-07T14:36:25;28.60;98.80
3281;DHT22;1652;51.318;6.202;2023-09-07T14:38:52;28.60;98.30
3281;DHT22;1652;51.318;6.202;2023-09-07T14:41:19;28.70;98.00
3281;DHT22;1652;51.318;6.202;2023-09-07T14:43:47;28.70;97.20
3281;DHT22;1652;51.318;6.202;2023-09-07T14:46:16;28.80;96.30
3281;DHT22;1652;51.318;6.202;2023-09-07T14:48:44;28.80;96.40
3281;DHT22;1652;51.318;6.202;2023-09-07T14:51:11;28.80;95.90
3281;DHT22;1652;51.318;6.202;2023-09-07T14:53:38;28.80;97.00
3281;DHT22;1652;51.318;6.202;2023-09-07T14:56:05;28.80;95.50
3281;DHT22;1652;51.318;6.202;2023-09-07T14:58:32;28.80;95.60
3281;DHT22;1652;51.318;6.202;2023-09-07T15:00:59;28.70;96.50
3281;DHT22;1652;51.318;6.202;2023-09-07T15:03:26;28.70;96.00
3281;DHT22;1652;51.318;6.202;2023-09-07T15:05:53;28.80;94.90
3281;DHT22;1652;51.318;6.202;2023-09-07T15:08:21;28.80;95.80
3281;DHT22;1652;51.318;6.202;2023-09-07T15:10:49;28.80;95.70
3281;DHT22;1652;51.318;6.202;2023-09-07T15:13:16;28.80;95.90
3281;DHT22;1652;51.318;6.202;2023-09-07T15:15:44;28.80;95.70
3281;DHT22;1652;51.318;6.202;2023-09-07T15:18:11;28.80;96.30
3281;DHT22;1652;51.318;6.202;2023-09-07T15:20:38;28.90;94.80
3281;DHT22;1652;51.318;6.202;2023-09-07T15:23:05;28.90;94.60
3281;DHT22;1652;51.318;6.202;2023-09-07T15:25:32;28.90;94.80
3281;DHT22;1652;51.318;6.202;2023-09-07T15:27:59;28.80;94.90
3281;DHT22;1652;51.318;6.202;2023-09-07T15:30:26;28.80;95.40
3281;DHT22;1652;51.318;6.202;2023-09-07T15:32:53;28.80;95.50
3281;DHT22;1652;51.318;6.202;2023-09-07T15:35:20;28.80;95.90
3281;DHT22;1652;51.318;6.202;2023-09-07T15:37:47;28.70;95.70
3281;DHT22;1652;51.318;6.202;2023-09-07T15:40:14;28.70;96.80
3281;DHT22;1652;51.318;6.202;2023-09-07T15:42:41;28.70;95.40
3281;DHT22;1652;51.318;6.202;2023-09-07T15:45:09;28.70;96.20
3281;DHT22;1652;51.318;6.202;2023-09-07T15:47:36;28.70;95.30
3281;DHT22;1652;51.318;6.202;2023-09-07T15:50:04;28.70;95.50
3281;DHT22;1652;51.318;6.202;2023-09-07T15:52:31;28.70;95.80
3281;DHT22;1652;51.318;6.202;2023-09-07T15:54:59;28.70;96.80
3281;DHT22;1652;51.318;6.202;2023-09-07T15:57:26;28.70;96.50
3281;DHT22;1652;51.318;6.202;2023-09-07T15:59:53;28.60;96.10
3281;DHT22;1652;51.318;6.202;2023-09-07T16:02:22;28.60;95.90
3281;DHT22;1652;51.318;6.202;2023-09-07T16:04:49;28.50;95.00
3281;DHT22;1652;51.318;6.202;2023-09-07T16:07:17;28.50;94.90
3281;DHT22;1652;51.318;6.202;2023-09-07T16:09:44;28.50;93.80